Etusivu
METAR-TAF:

METAR-TAF

Lentoasemat :

Tripoli, Libya

Mitiga International Airport

Leveyspiiri: 32-54N, Pituuspiiri: 13-17E, korkeus merenpinnasta: 11 m

Tämänhetkinen sää

Tämä raportti tehtiin 1 tunti ja 17 minuuttia sitten, kello 08.50 UTC
Tuuli 10 kn idästä/koillisesta
Lämpötila 24°C
Kosteus 61%
Ilmanpaine 1018 hPa
Näkyvyys: 8000 m
Muutamia pilviä 3000 ft:n korkeudessa

METAR: HLLM 270850Z 07010KT 8000 FEW030 24/16 Q1018

Aika: 12:07 (10:07 UTC)

Sääennuste

Tämä raportti tehtiin 29 tuntia ja 7 minuuttia sitten, kello 05.00 UTC
Ennuste voimassa 26. päivästä klo 06 UTC - 27. päivään klo 06 UTC
Tuuli 12 kn idästä
Näkyvyys 10 km tai enemmän
Muutamia pilviä 3000 ft:n korkeudessa
Tulossa
26. päivästä klo 21 UTC - 26. päivään klo 23 UTC
Tuuli 2 kn eri suunnista
Tulossa
27. päivästä klo 03 UTC - 27. päivään klo 05 UTC
Tuuli 12 kn idästä/koillisesta

TAF: HLLM 260500Z 2606/2706 08012KT 9999 FEW030 BECMG 2621/2623 VRB02KT BECMG 2703/2705 07012KT

Säähavainnot ja -ennusteet yli 4000 lentoasemalta (METAR- ja TAF-raportit).

Käytössä olevat sääasemat on merkitty karttaan keltaisilla ja punaisilla pisteillä.

Aseta hiiri pisteen päälle nähdäksesi sääaseman nimen.

Klikkaa sitten nähdäksesi säähavainnot ja -ennusteet.

Kartan vaihtaminen: klikkaa mustalla rastilla varustettuja vihreitä pisteitä, niin voit zoomata sisään; viivalla varustettua vihreää pistettä, niin voit zoomata ulos tai vihreitä nuolia, niin pääset viereisille kartoille.


METAR-TAF: